aviador You're here:

KBKB Decoded Metar

FULLERTON/POLK in LA, USA
Report Time2017-11-24 19:54:00
UTC Time2017-11-24 20:10:59
Flight Rules vfr VFR
WindCalm
Visibility9999 m
Phenomena:N/A
Clouds:N/A
Expected CloudBase > 7,200 ft AGL from Temp-Dew spread
CeilingNone
Temp20°C (ISA +6)
Dew Point02°C (30% RH)
AAT18.3°C
QNH1014 hPa
Density Alt1,030 ft
Elevation308 ft
Report Wrong Elevation
Raw Report
KBKB 241954Z AUTO 00000KT 10SM CLR 20/02 A2993 RMK AO2 SLP165
T02000022=

Extra information for KBKB:More info

Metar Taf Metar & Taf Last 4 Metars F.Rules Stats Wind Profile Meteogram Temp Stats Airport Information Weather charts Add Link Nearby VenuesMetar ALERT Operation Metar Decoded Social comments

AIRNAV info for KBKB